Baudette International Airport
KBDE : now visible

Airfield :











YOU CAN JOIN US ON...

 
LOGIN :

Register | Disclaimer

   EN    FR    IT 

 









Legend :    VFR   Marginal VFR   IFR   Intensive IFR   Very Intensive IFR
Visi :
Ceiling :
>= 8 km
>= 3000ft
5 to 8 km
1000 to 3000 ft
1500m to 5 km
500 to 1000 ft
800 to 1500m
200 to 500 ft
< 800m
< 200 ft
Symbols :   Thunderstorms  Fog  Heavy snow  Heavy precipitations  Wind > 20 kt






- Airport Elevation : 1086 ft


KBDE - Baudette International

CURRENT METAR :
  • 170900Z AUTO 15003KT 3/4SM BR VV003 M09/M10 A2976 RMK AO2 T10941100

EXPIRED METARs :
  • 170853Z AUTO 21003KT 1 1/4SM BR OVC002 M09/M10 A2976 RMK AO2 SLP101 I1001 I3001 T10941100 51001
  • 170838Z AUTO 20003KT 1SM BR OVC002 M09/M09 A2977 RMK AO2 I1000 T10891094
  • 170800Z AUTO 28004KT 1 3/4SM BR OVC002 M09/M09 A2976 RMK AO2 T10891094
  • 170753Z AUTO 00000KT 4SM BR OVC002 M09/M09 A2976 RMK AO2 SLP100 I1000 T10891094
  • 170747Z AUTO 00000KT 3SM BR OVC002 M09/M09 A2976 RMK AO2 I1000
  • 170735Z AUTO 31003KT 1 1/2SM BR OVC002 M09/M09 A2976 RMK AO2 I1000 T10891094
  • 170724Z AUTO 00000KT 2 1/2SM BR OVC002 M08/M09 A2977 RMK AO2 VIS 1 1/4V4 T10831089
  • 170705Z AUTO 00000KT 1 3/4SM BR OVC002 M09/M09 A2976 RMK AO2 VIS 1 1/4V4 T10891094
  • 170653Z AUTO 00000KT 6SM BR OVC003 M08/M09 A2976 RMK AO2 SLP101 I1000 T10831089

TAF N/A
KZMP FIR / North America



MET'MAP, your aeronautical weather chart ! - Copyright ORBIFLY December 2007 - Disclaimer

ORBIFLY MET'MAP TEAM :

Programming & Development : Alexandra Zaïnal
Concept & original design : Baudouin d'Aumeries
Assistance for programming : Marc-Olivier Méhu
Technical & hardware support : Manuel Goepfert

Contact : metmap@orbifly.com




SOURCES & CREDITS :

   NOAA       Earth
Advisory